Time;durP1;ratioP1;P1;durP2;ratioP2;P2;SDS_P1;SDS_P2;PMS_P1;PMS_P2;Temp;Humidity;BMP_temperature;BMP_pressure;BME280_temperature;BME280_humidity;BME280_pressure;Samples;Min_cycle;Max_cycle;Signal;HPM_P1;HPM_P2
2022/05/04 00:00:10;;;;;;;9.10;8.50;;;10.60;99.90;;;;;;5082477;28;20679;-88
2022/05/04 00:02:37;;;;;;;11.10;10.20;;;10.60;99.90;;;;;;5083468;28;20635;-88
2022/05/04 00:05:05;;;;;;;10.67;9.60;;;10.80;99.90;;;;;;5078001;28;20628;-88
2022/05/04 00:07:33;;;;;;;10.13;9.53;;;10.80;99.90;;;;;;5081851;28;20616;-87
2022/05/04 00:10:00;;;;;;;10.50;9.70;;;10.40;99.90;;;;;;5077905;28;20653;-87
2022/05/04 00:12:28;;;;;;;9.93;9.13;;;10.40;99.90;;;;;;5094678;28;20712;-87
2022/05/04 00:14:55;;;;;;;9.97;8.90;;;10.50;99.90;;;;;;5084403;28;20613;-87
2022/05/04 00:17:22;;;;;;;8.83;8.20;;;10.80;99.90;;;;;;5083424;28;20674;-87
2022/05/04 00:19:48;;;;;;;9.00;8.10;;;10.90;99.90;;;;;;5083299;28;20656;-87
2022/05/04 00:22:19;;;;;;;9.20;8.50;;;10.50;99.90;;;;;;5082565;28;20654;-87
2022/05/04 00:24:47;;;;;;;8.23;7.63;;;10.50;99.90;;;;;;5082868;28;20666;-88
2022/05/04 00:27:15;;;;;;;8.63;7.87;;;10.80;99.90;;;;;;5080113;28;20624;-87
2022/05/04 00:29:42;;;;;;;8.73;8.07;;;10.60;99.90;;;;;;5086649;28;20656;-88
2022/05/04 00:32:10;;;;;;;8.87;8.07;;;10.40;99.90;;;;;;5083501;28;20663;-88
2022/05/04 00:34:37;;;;;;;8.47;7.77;;;10.40;99.90;;;;;;5079108;28;20636;-89
2022/05/04 00:37:04;;;;;;;9.27;8.50;;;10.30;99.90;;;;;;5079040;28;20631;-88
2022/05/04 00:39:31;;;;;;;8.73;7.77;;;10.50;99.90;;;;;;5075467;28;20651;-88
2022/05/04 00:42:12;;;;;;;8.07;7.47;;;10.70;99.90;;;;;;5084709;28;20668;-87
2022/05/04 00:44:39;;;;;;;7.60;7.00;;;10.70;99.90;;;;;;5083731;28;21177;-87
2022/05/04 00:47:09;;;;;;;7.60;7.00;;;10.40;99.90;;;;;;5082626;28;20628;-87
2022/05/04 00:49:36;;;;;;;8.97;8.33;;;10.70;99.90;;;;;;5082269;28;21130;-87
2022/05/04 00:52:04;;;;;;;8.53;7.83;;;10.10;99.90;;;;;;5079371;28;21222;-87
2022/05/04 00:54:31;;;;;;;10.50;9.63;;;10.50;99.90;;;;;;5081372;28;20624;-87
2022/05/04 00:56:59;;;;;;;9.70;9.00;;;10.30;99.90;;;;;;5082400;28;20635;-88
2022/05/04 00:59:27;;;;;;;9.80;9.00;;;10.20;99.90;;;;;;5077700;28;21160;-87
2022/05/04 01:01:53;;;;;;;10.93;10.03;;;10.40;99.90;;;;;;5080007;28;20661;-87
2022/05/04 01:04:20;;;;;;;10.67;9.83;;;10.30;99.90;;;;;;5078247;28;20620;-87
2022/05/04 01:06:47;;;;;;;10.17;9.37;;;10.50;99.90;;;;;;5078421;28;20635;-86
2022/05/04 01:09:14;;;;;;;9.20;8.60;;;10.40;99.90;;;;;;5083389;28;20727;-87
2022/05/04 01:11:41;;;;;;;9.77;9.00;;;10.30;99.90;;;;;;5083703;28;20640;-86
2022/05/04 01:14:09;;;;;;;8.90;8.37;;;10.00;99.90;;;;;;5081467;28;21166;-86
2022/05/04 01:16:39;;;;;;;10.63;9.80;;;10.50;99.90;;;;;;5081751;28;20749;-87
2022/05/04 01:19:06;;;;;;;10.10;9.20;;;10.10;99.90;;;;;;5076534;28;20629;-86
2022/05/04 01:21:33;;;;;;;11.03;10.23;;;10.20;99.90;;;;;;5082985;28;21112;-86
2022/05/04 01:24:02;;;;;;;10.50;9.80;;;10.50;99.90;;;;;;5076902;28;20636;-86
2022/05/04 01:26:28;;;;;;;11.50;10.27;;;10.30;99.90;;;;;;5076752;28;20624;-86
2022/05/04 01:28:55;;;;;;;10.47;9.67;;;10.70;99.90;;;;;;5075661;28;20985;-86
2022/05/04 01:31:22;;;;;;;10.60;9.90;;;10.50;99.90;;;;;;5089927;28;20644;-86
2022/05/04 01:33:49;;;;;;;12.23;10.10;;;10.30;99.90;;;;;;5083723;28;20608;-86
2022/05/04 01:36:16;;;;;;;10.10;9.40;;;10.30;99.90;;;;;;5083185;28;20996;-86
2022/05/04 01:38:42;;;;;;;10.10;9.20;;;10.20;99.90;;;;;;5080331;28;20668;-86
2022/05/04 01:43:51;;;;;;;10.23;9.53;;;10.40;99.90;;;;;;5081057;28;20609;-87
2022/05/04 01:46:19;;;;;;;10.73;9.83;;;10.20;99.90;;;;;;5088521;28;20628;-85
2022/05/04 01:48:46;;;;;;;9.77;9.00;;;10.40;99.90;;;;;;5087653;28;21048;-85
2022/05/04 01:51:12;;;;;;;10.90;10.10;;;10.70;99.90;;;;;;5081565;28;20659;-85
2022/05/04 01:53:39;;;;;;;11.57;10.67;;;10.30;99.90;;;;;;5079419;28;20624;-86
2022/05/04 01:56:07;;;;;;;10.93;10.13;;;10.50;99.90;;;;;;5083822;28;20620;-86
2022/05/04 01:58:36;;;;;;;11.53;10.73;;;10.20;99.90;;;;;;5086790;28;20620;-85
2022/05/04 02:01:02;;;;;;;9.67;9.03;;;10.60;99.90;;;;;;5085075;28;20668;-85
2022/05/04 02:03:29;;;;;;;10.07;9.37;;;10.20;99.90;;;;;;5086130;28;20701;-85
2022/05/04 02:05:56;;;;;;;11.03;10.13;;;10.50;99.90;;;;;;5084334;28;20631;-85
2022/05/04 02:08:25;;;;;;;10.03;9.30;;;10.40;99.90;;;;;;5082913;28;21441;-85
2022/05/04 02:10:52;;;;;;;11.43;10.23;;;11.00;99.90;;;;;;5087913;28;20656;-86
2022/05/04 02:13:18;;;;;;;11.53;10.63;;;10.40;99.90;;;;;;5081286;28;21022;-86
2022/05/04 02:15:47;;;;;;;11.00;10.27;;;10.60;99.90;;;;;;5083510;28;20625;-86
2022/05/04 02:18:13;;;;;;;12.20;11.20;;;10.80;99.90;;;;;;5082865;28;20616;-86
2022/05/04 02:20:40;;;;;;;12.60;11.50;;;10.60;99.90;;;;;;5085943;28;20682;-86
2022/05/04 02:23:07;;;;;;;11.67;10.87;;;10.40;99.90;;;;;;5085496;28;20631;-86
2022/05/04 02:25:34;;;;;;;11.80;11.00;;;11.00;99.90;;;;;;5077122;28;20677;-87
2022/05/04 02:28:01;;;;;;;12.53;11.43;;;10.40;99.90;;;;;;5103283;28;20604;-87
2022/05/04 02:30:27;;;;;;;10.77;9.97;;;10.90;99.90;;;;;;5088631;28;21300;-87
2022/05/04 02:32:55;;;;;;;11.63;10.50;;;10.90;99.90;;;;;;5086615;28;20632;-87
2022/05/04 02:38:08;;;;;;;10.27;9.57;;;10.90;99.90;;;;;;5082867;28;20675;-88
2022/05/04 02:40:34;;;;;;;10.93;10.13;;;10.90;99.90;;;;;;5084256;28;20980;-88
2022/05/04 02:43:04;;;;;;;11.67;10.80;;;10.90;99.90;;;;;;5088165;28;20627;-87
2022/05/04 02:45:31;;;;;;;10.90;10.10;;;10.60;99.90;;;;;;5084380;28;20632;-88
2022/05/04 02:47:59;;;;;;;9.67;8.97;;;10.90;99.90;;;;;;5077929;28;20624;-87
2022/05/04 02:50:26;;;;;;;10.63;9.67;;;10.70;99.90;;;;;;5085241;28;20912;-86
2022/05/04 02:52:53;;;;;;;11.70;10.60;;;11.30;99.90;;;;;;5076646;28;20628;-86
2022/05/04 02:55:20;;;;;;;11.17;10.27;;;10.90;99.90;;;;;;5076352;28;20691;-86
2022/05/04 02:57:46;;;;;;;11.70;10.77;;;11.30;99.90;;;;;;5080453;28;20680;-86
2022/05/04 03:00:14;;;;;;;12.30;11.40;;;10.90;99.90;;;;;;5082899;28;20659;-86
2022/05/04 03:02:40;;;;;;;11.47;10.60;;;11.00;99.90;;;;;;5081512;28;20668;-86
2022/05/04 03:05:10;;;;;;;12.07;10.97;;;11.00;99.90;;;;;;5082607;28;20646;-86
2022/05/04 03:07:37;;;;;;;11.30;10.47;;;11.20;99.90;;;;;;5082685;28;20210;-86
2022/05/04 03:10:04;;;;;;;11.33;10.33;;;11.10;99.90;;;;;;5084770;28;20659;-86
2022/05/04 03:12:31;;;;;;;11.80;10.90;;;11.10;99.90;;;;;;5078897;28;20613;-86
2022/05/04 03:14:58;;;;;;;11.47;10.77;;;10.60;99.90;;;;;;5080672;28;21017;-85
2022/05/04 03:17:25;;;;;;;11.00;10.13;;;10.70;99.90;;;;;;5081057;28;20651;-85
2022/05/04 03:19:52;;;;;;;12.43;11.37;;;11.10;99.90;;;;;;5078221;28;20993;-85
2022/05/04 03:22:20;;;;;;;11.60;10.60;;;11.10;99.90;;;;;;5080883;28;20667;-86
2022/05/04 03:24:47;;;;;;;11.43;10.43;;;11.20;99.90;;;;;;5078385;28;20637;-86
2022/05/04 03:27:14;;;;;;;11.63;10.53;;;11.00;99.90;;;;;;5080302;28;21001;-86
2022/05/04 03:29:40;;;;;;;11.50;10.70;;;10.90;99.90;;;;;;5077365;28;20655;-89
2022/05/04 03:32:08;;;;;;;12.87;12.00;;;10.90;99.90;;;;;;5084133;28;20636;-89
2022/05/04 03:34:35;;;;;;;11.57;10.70;;;11.00;99.90;;;;;;5085550;28;20625;-89
2022/05/04 03:37:02;;;;;;;12.27;11.17;;;11.30;99.90;;;;;;5075566;28;20639;-89
2022/05/04 03:39:30;;;;;;;12.00;11.10;;;10.90;99.90;;;;;;5082849;28;21190;-89
2022/05/04 03:41:57;;;;;;;12.13;11.10;;;10.70;99.90;;;;;;5084022;28;20660;-89
2022/05/04 03:44:24;;;;;;;13.37;12.30;;;11.00;99.90;;;;;;5085173;28;20619;-89
2022/05/04 03:46:52;;;;;;;11.90;11.00;;;10.80;99.90;;;;;;5084602;28;20640;-89
2022/05/04 03:49:21;;;;;;;13.10;11.97;;;10.90;99.90;;;;;;5081380;28;20659;-89
2022/05/04 03:51:48;;;;;;;12.93;11.30;;;11.00;99.90;;;;;;5085443;28;20640;-89
2022/05/04 03:54:15;;;;;;;11.17;10.37;;;11.20;99.90;;;;;;5075328;28;20636;-88
2022/05/04 03:56:43;;;;;;;11.23;10.33;;;10.90;99.90;;;;;;5086757;28;20667;-87
2022/05/04 03:59:10;;;;;;;11.03;10.23;;;11.00;99.90;;;;;;5084330;28;20639;-89
2022/05/04 04:01:37;;;;;;;11.03;10.10;;;10.80;99.90;;;;;;5083363;28;20672;-87
2022/05/04 04:04:04;;;;;;;12.17;11.03;;;10.90;99.90;;;;;;5081218;28;20652;-89
2022/05/04 04:06:32;;;;;;;12.00;11.03;;;11.00;99.90;;;;;;5080453;28;20640;-89
2022/05/04 04:08:59;;;;;;;11.90;11.10;;;11.20;99.90;;;;;;5085702;28;21061;-89
2022/05/04 04:11:26;;;;;;;12.00;11.20;;;10.80;99.90;;;;;;5084602;28;20648;-85
2022/05/04 04:13:55;;;;;;;11.60;10.70;;;11.00;99.90;;;;;;5085504;28;20655;-86
2022/05/04 04:16:21;;;;;;;11.43;10.60;;;11.00;99.90;;;;;;5086776;28;20616;-87
2022/05/04 04:18:48;;;;;;;11.23;10.43;;;11.00;99.90;;;;;;5093328;28;20615;-86
2022/05/04 04:23:59;;;;;;;12.23;11.43;;;10.90;99.90;;;;;;5096606;28;20639;-87
2022/05/04 04:26:26;;;;;;;11.43;10.53;;;11.00;99.90;;;;;;5088048;28;20624;-87
2022/05/04 04:28:54;;;;;;;12.00;11.10;;;11.00;99.90;;;;;;5087412;28;20619;-89
2022/05/04 04:31:21;;;;;;;11.17;10.17;;;10.80;99.90;;;;;;5084353;28;20675;-88
2022/05/04 04:33:48;;;;;;;10.80;10.10;;;10.90;99.90;;;;;;5089853;28;20652;-89
2022/05/04 04:36:14;;;;;;;11.77;10.87;;;11.40;99.90;;;;;;5092382;28;20620;-89
2022/05/04 04:38:41;;;;;;;11.80;11.00;;;11.70;99.90;;;;;;5081191;28;20628;-88
2022/05/04 04:41:08;;;;;;;12.93;11.73;;;11.50;99.90;;;;;;5090614;28;20634;-87
2022/05/04 04:43:35;;;;;;;12.77;11.70;;;11.20;99.90;;;;;;5096843;28;20634;-87
2022/05/04 04:46:03;;;;;;;11.93;11.10;;;11.30;99.90;;;;;;5096045;28;20589;-86
2022/05/04 04:48:30;;;;;;;12.17;11.17;;;11.10;99.90;;;;;;5086286;28;20624;-87
2022/05/04 04:50:56;;;;;;;13.07;11.90;;;11.00;99.90;;;;;;5080361;28;20585;-86
2022/05/04 04:53:23;;;;;;;11.57;10.57;;;11.30;99.90;;;;;;5078979;28;21202;-86
2022/05/04 04:55:50;;;;;;;11.70;10.80;;;11.50;99.90;;;;;;5091146;28;20627;-86
2022/05/04 04:58:16;;;;;;;12.50;11.60;;;11.20;99.90;;;;;;5089628;28;20620;-87
2022/05/04 05:00:43;;;;;;;12.27;11.23;;;11.60;99.90;;;;;;5080317;28;20660;-87
2022/05/04 05:03:11;;;;;;;12.27;11.10;;;11.20;99.90;;;;;;5080866;28;20677;-87
2022/05/04 05:05:41;;;;;;;11.13;10.13;;;11.70;99.90;;;;;;5082530;28;20658;-85
2022/05/04 05:08:09;;;;;;;11.13;10.23;;;11.50;99.90;;;;;;5078939;28;20713;-85
2022/05/04 05:10:36;;;;;;;11.23;10.23;;;11.40;99.90;;;;;;5079258;28;20952;-85
2022/05/04 05:13:03;;;;;;;11.83;10.93;;;11.50;99.90;;;;;;5083363;28;20974;-86
2022/05/04 05:18:15;;;;;;;11.93;10.97;;;11.70;99.90;;;;;;5081486;28;21185;-87
2022/05/04 05:20:42;;;;;;;14.13;12.77;;;11.70;99.90;;;;;;5079299;28;20621;-86
2022/05/04 05:23:08;;;;;;;12.90;11.97;;;11.50;99.90;;;;;;5080061;28;21149;-86
2022/05/04 05:25:35;;;;;;;14.10;12.03;;;11.40;99.90;;;;;;5077526;28;20621;-86
2022/05/04 05:28:02;;;;;;;12.33;11.43;;;11.80;99.90;;;;;;5081104;28;20616;-85
2022/05/04 05:30:29;;;;;;;12.80;11.80;;;11.50;99.90;;;;;;5077419;28;20629;-85
2022/05/04 05:32:57;;;;;;;16.00;14.83;;;11.90;99.90;;;;;;5084268;28;20645;-85
2022/05/04 05:35:25;;;;;;;13.70;12.60;;;11.60;99.90;;;;;;5080155;28;20659;-86
2022/05/04 05:37:51;;;;;;;12.43;11.43;;;11.50;99.90;;;;;;5087086;28;20604;-88
2022/05/04 05:40:19;;;;;;;11.47;10.57;;;11.70;99.90;;;;;;5081530;28;20604;-87
2022/05/04 05:42:45;;;;;;;12.17;11.27;;;12.00;99.90;;;;;;5083722;28;20680;-87
2022/05/04 05:45:12;;;;;;;11.60;10.70;;;12.10;99.90;;;;;;5081819;28;20624;-88
2022/05/04 05:47:39;;;;;;;11.83;10.87;;;12.10;99.90;;;;;;5076075;28;20632;-88
2022/05/04 05:50:07;;;;;;;12.90;11.67;;;12.10;99.90;;;;;;5081187;28;20669;-88
2022/05/04 05:52:35;;;;;;;11.83;10.93;;;12.10;99.90;;;;;;5077068;28;20649;-89
2022/05/04 05:55:02;;;;;;;11.37;10.23;;;12.00;99.90;;;;;;5083599;28;20627;-88
2022/05/04 05:57:29;;;;;;;10.67;9.83;;;12.20;99.90;;;;;;5079525;28;21643;-88
2022/05/04 05:59:56;;;;;;;10.47;9.77;;;12.00;99.90;;;;;;5081970;28;20624;-88
2022/05/04 06:02:27;;;;;;;11.43;8.87;;;12.20;99.90;;;;;;5079796;28;21143;-88
2022/05/04 06:04:53;;;;;;;9.20;8.57;;;12.20;99.90;;;;;;5076622;28;20632;-88
2022/05/04 06:07:20;;;;;;;9.80;9.10;;;12.10;99.90;;;;;;5077318;28;20615;-87
2022/05/04 06:09:48;;;;;;;9.50;8.70;;;12.30;99.90;;;;;;5079487;28;21162;-88
2022/05/04 06:12:15;;;;;;;9.73;9.03;;;12.20;99.90;;;;;;5084158;28;20679;-88
2022/05/04 06:14:42;;;;;;;10.60;9.70;;;12.10;99.90;;;;;;5082258;28;20621;-87
2022/05/04 06:17:08;;;;;;;10.00;9.10;;;12.50;99.90;;;;;;5084548;28;20628;-88
2022/05/04 06:19:35;;;;;;;10.37;9.67;;;12.50;99.90;;;;;;5078515;28;20635;-87
2022/05/04 06:22:02;;;;;;;9.63;8.83;;;12.60;99.90;;;;;;5079205;28;20676;-87
2022/05/04 06:24:29;;;;;;;9.63;9.00;;;12.60;99.90;;;;;;5075336;28;20612;-86
2022/05/04 06:26:57;;;;;;;10.10;9.40;;;12.40;99.90;;;;;;5085677;28;20624;-87
2022/05/04 06:34:06;;;;;;;10.77;9.93;;;12.60;99.90;;;;;;5083945;28;20964;-88
2022/05/04 06:34:55;;;;;;;9.07;8.00;;;12.70;99.90;;;;;;5088419;28;20668;-89
2022/05/04 06:37:22;;;;;;;9.80;8.80;;;12.80;99.90;;;;;;5092209;28;20653;-87
2022/05/04 06:39:49;;;;;;;9.00;8.30;;;12.80;99.90;;;;;;5082627;28;20625;-88
2022/05/04 06:42:18;;;;;;;9.13;8.33;;;12.80;99.90;;;;;;5078557;28;20778;-86
2022/05/04 06:44:45;;;;;;;9.60;8.77;;;12.60;99.90;;;;;;5074264;28;20616;-87
2022/05/04 06:47:12;;;;;;;9.63;8.60;;;12.80;99.90;;;;;;5081676;28;20636;-87
2022/05/04 06:49:39;;;;;;;10.50;9.60;;;12.80;99.90;;;;;;5080141;28;20628;-89
2022/05/04 06:52:07;;;;;;;8.83;8.13;;;12.90;99.90;;;;;;5077737;28;21162;-87
2022/05/04 06:54:35;;;;;;;9.30;8.50;;;12.90;99.90;;;;;;5081563;28;20620;-88
2022/05/04 06:57:02;;;;;;;10.10;9.23;;;12.90;99.90;;;;;;5085253;28;20620;-87
2022/05/04 06:59:35;;;;;;;9.90;9.10;;;13.00;99.90;;;;;;5075469;28;21259;-87
2022/05/04 07:02:02;;;;;;;9.60;8.73;;;13.00;99.90;;;;;;5083713;28;20763;-89
2022/05/04 07:04:29;;;;;;;10.57;9.77;;;13.00;99.90;;;;;;5076233;28;21055;-89
2022/05/04 07:06:56;;;;;;;9.27;8.33;;;13.10;99.90;;;;;;5082815;28;20624;-88
2022/05/04 07:09:25;;;;;;;10.33;9.63;;;13.10;99.90;;;;;;5079975;28;20649;-89
2022/05/04 07:11:51;;;;;;;10.40;9.50;;;13.20;99.90;;;;;;5081791;28;21304;-88
2022/05/04 07:14:18;;;;;;;10.27;9.37;;;13.30;99.90;;;;;;5082527;28;20632;-88
2022/05/04 07:16:47;;;;;;;10.13;9.40;;;13.30;99.90;;;;;;5081067;28;20632;-88
2022/05/04 07:19:14;;;;;;;9.77;8.87;;;13.50;99.90;;;;;;5080452;28;20686;-88
2022/05/04 07:21:41;;;;;;;9.77;9.17;;;13.50;99.90;;;;;;5078930;28;21037;-88
2022/05/04 07:24:08;;;;;;;9.43;8.83;;;13.60;99.90;;;;;;5076419;28;20659;-89
2022/05/04 07:26:34;;;;;;;10.07;9.07;;;13.50;99.90;;;;;;5079573;28;20621;-88
2022/05/04 07:29:01;;;;;;;9.97;8.97;;;13.60;99.90;;;;;;5079140;28;20661;-88
2022/05/04 07:31:29;;;;;;;9.60;8.80;;;13.70;99.90;;;;;;5074678;28;20600;-88
2022/05/04 07:34:00;;;;;;;11.10;10.10;;;13.80;99.90;;;;;;5080988;28;20631;-88
2022/05/04 07:36:27;;;;;;;9.57;8.67;;;14.00;99.90;;;;;;5078153;28;20628;-89
2022/05/04 07:38:54;;;;;;;9.03;8.40;;;14.00;99.90;;;;;;5079160;28;20651;-90
2022/05/04 07:44:05;;;;;;;9.53;8.63;;;14.30;99.90;;;;;;5083014;28;21130;-90
2022/05/04 07:46:34;;;;;;;10.30;9.60;;;14.40;99.90;;;;;;5081898;28;20631;-89
2022/05/04 07:49:02;;;;;;;9.37;8.77;;;14.60;99.90;;;;;;5084561;28;20657;-89
2022/05/04 07:51:30;;;;;;;9.67;8.97;;;14.70;99.90;;;;;;5081076;28;20628;-90
2022/05/04 07:53:57;;;;;;;9.03;8.20;;;15.00;99.90;;;;;;5082442;28;20585;-89
2022/05/04 07:56:23;;;;;;;9.00;8.40;;;15.10;99.90;;;;;;5081806;28;20628;-89
2022/05/04 07:58:56;;;;;;;9.00;8.10;;;15.20;99.90;;;;;;5078512;28;20645;-88
2022/05/04 08:04:21;;;;;;;8.97;8.37;;;15.60;99.90;;;;;;5078035;28;21441;-88
2022/05/04 08:06:48;;;;;;;7.17;6.47;;;15.70;99.90;;;;;;5079043;28;20629;-87
2022/05/04 08:09:15;;;;;;;8.20;7.60;;;15.70;99.90;;;;;;5075194;28;21013;-87
2022/05/04 08:11:43;;;;;;;8.77;7.97;;;16.00;99.90;;;;;;5075227;28;20642;-88
2022/05/04 08:14:10;;;;;;;8.77;8.07;;;16.20;99.90;;;;;;5077428;28;20637;-88
2022/05/04 08:16:39;;;;;;;8.70;7.90;;;16.50;99.90;;;;;;5076626;28;20637;-88
2022/05/04 08:19:06;;;;;;;8.13;7.43;;;16.80;99.90;;;;;;5082632;28;20643;-88
2022/05/04 08:21:36;;;;;;;6.47;5.97;;;17.00;99.90;;;;;;5078794;28;20613;-88
2022/05/04 08:24:05;;;;;;;7.40;6.70;;;17.10;99.90;;;;;;5085197;28;20663;-88
2022/05/04 08:26:31;;;;;;;6.33;5.83;;;17.30;99.90;;;;;;5080990;28;20630;-89
2022/05/04 08:28:59;;;;;;;9.20;6.90;;;17.40;99.90;;;;;;5080271;28;20643;-89
2022/05/04 08:31:27;;;;;;;7.07;6.47;;;17.40;99.90;;;;;;5082764;28;20592;-88
2022/05/04 08:33:54;;;;;;;7.10;6.40;;;17.40;99.90;;;;;;5083300;28;20616;-88
2022/05/04 08:36:22;;;;;;;7.37;6.73;;;17.50;99.90;;;;;;5079366;28;20633;-88
2022/05/04 08:38:54;;;;;;;7.03;6.50;;;17.60;99.90;;;;;;5073987;28;20657;-88
2022/05/04 08:41:23;;;;;;;7.73;7.03;;;17.50;99.90;;;;;;5080079;28;20619;-88
2022/05/04 08:43:51;;;;;;;7.90;7.30;;;17.50;99.90;;;;;;5080215;28;21212;-88
2022/05/04 08:46:22;;;;;;;6.67;6.20;;;17.40;99.90;;;;;;5077357;28;20669;-88
2022/05/04 08:48:50;;;;;;;8.63;7.77;;;17.40;99.90;;;;;;5080928;28;21055;-88
2022/05/04 08:51:19;;;;;;;7.53;6.70;;;17.40;99.90;;;;;;5077050;28;20632;-88
2022/05/04 08:53:46;;;;;;;9.00;8.30;;;17.40;99.90;;;;;;5075486;28;20621;-88
2022/05/04 08:56:14;;;;;;;7.00;6.40;;;17.30;99.90;;;;;;5072463;28;20718;-88
2022/05/04 08:58:41;;;;;;;11.63;7.97;;;17.30;99.90;;;;;;5075293;28;20664;-89
2022/05/04 09:01:08;;;;;;;7.90;7.10;;;17.20;99.90;;;;;;5079400;28;20647;-87
2022/05/04 09:03:34;;;;;;;6.17;5.73;;;17.20;99.90;;;;;;5075069;28;20733;-88
2022/05/04 09:06:01;;;;;;;6.83;6.20;;;17.20;99.90;;;;;;5078721;28;20640;-88
2022/05/04 09:08:28;;;;;;;6.87;6.40;;;17.10;99.90;;;;;;5075229;28;20667;-88
2022/05/04 09:10:55;;;;;;;7.13;5.80;;;17.10;99.90;;;;;;5080865;28;20631;-88
2022/05/04 09:13:23;;;;;;;5.60;5.10;;;17.10;99.90;;;;;;5076389;28;20624;-88
2022/05/04 09:15:51;;;;;;;7.33;6.70;;;17.10;99.90;;;;;;5078402;28;20625;-89
2022/05/04 09:18:19;;;;;;;7.00;6.10;;;17.00;99.90;;;;;;5078134;28;20717;-89
2022/05/04 09:20:55;;;;;;;8.77;7.97;;;17.00;99.90;;;;;;5074931;28;21014;-86
2022/05/04 09:23:23;;;;;;;9.80;7.83;;;17.00;99.90;;;;;;5071602;28;21033;-88
2022/05/04 09:25:51;;;;;;;7.83;6.97;;;16.90;99.90;;;;;;5081305;28;20636;-89
2022/05/04 09:28:19;;;;;;;8.60;7.80;;;16.90;99.90;;;;;;5073299;28;20632;-88
2022/05/04 09:30:49;;;;;;;8.80;8.00;;;16.90;99.90;;;;;;5077076;28;21256;-88
2022/05/04 09:33:20;;;;;;;9.80;8.07;;;16.90;99.90;;;;;;5081618;28;20623;-89
2022/05/04 09:35:48;;;;;;;8.63;6.63;;;17.00;99.90;;;;;;5075981;28;20629;-88
2022/05/04 09:46:39;;;;;;;8.33;7.53;;;17.20;99.90;;;;;;5077547;28;20677;-88
2022/05/04 09:49:13;;;;;;;8.20;7.53;;;17.40;99.90;;;;;;5074078;28;20734;-89
2022/05/04 09:51:48;;;;;;;8.00;7.40;;;17.60;99.90;;;;;;5081783;28;20635;-89
2022/05/04 09:54:21;;;;;;;8.47;7.67;;;17.70;99.90;;;;;;5076258;28;20655;-90
2022/05/04 09:56:49;;;;;;;7.40;6.90;;;17.80;99.90;;;;;;5080289;28;20656;-91
2022/05/04 09:59:18;;;;;;;8.63;8.00;;;17.80;99.90;;;;;;5080528;28;20663;-90
2022/05/04 10:01:48;;;;;;;9.07;8.40;;;17.90;99.90;;;;;;5084249;28;20615;-90
2022/05/04 10:04:15;;;;;;;9.30;8.70;;;17.90;99.90;;;;;;5078727;28;20718;-90
2022/05/04 10:06:43;;;;;;;8.63;7.93;;;18.00;99.90;;;;;;5084154;28;20632;-90
2022/05/04 10:09:12;;;;;;;8.03;6.33;;;17.90;99.90;;;;;;5079100;28;20998;-90
2022/05/04 10:11:39;;;;;;;8.13;7.13;;;17.90;99.90;;;;;;5083715;28;20614;-91
2022/05/04 10:14:09;;;;;;;7.30;6.60;;;17.90;99.90;;;;;;5081902;28;20791;-90
2022/05/04 10:16:41;;;;;;;9.73;8.90;;;17.80;99.90;;;;;;5074962;28;20624;-90
2022/05/04 10:19:14;;;;;;;8.83;7.63;;;17.70;99.90;;;;;;5084105;28;20647;-90
2022/05/04 10:21:43;;;;;;;10.10;9.10;;;17.70;99.90;;;;;;5082643;28;20624;-90
2022/05/04 10:24:12;;;;;;;11.07;10.17;;;17.70;99.90;;;;;;5083364;28;20658;-88
2022/05/04 10:26:39;;;;;;;9.93;9.20;;;17.60;99.90;;;;;;5081115;28;20717;-87
2022/05/04 10:32:32;;;;;;;12.03;11.00;;;17.60;99.90;;;;;;5041190;28;20605;-87
2022/05/04 10:35:35;;;;;;;12.20;11.20;;;17.60;99.90;;;;;;5075592;28;21160;-87
2022/05/04 10:38:15;;;;;;;11.13;10.30;;;17.70;99.90;;;;;;5034836;28;20646;-87
2022/05/04 10:40:50;;;;;;;11.60;10.60;;;17.90;99.90;;;;;;5078609;28;20953;-87
2022/05/04 10:43:19;;;;;;;11.00;10.00;;;18.10;99.90;;;;;;5086747;28;21096;-88
2022/05/04 10:45:47;;;;;;;10.87;10.03;;;18.40;99.90;;;;;;5084597;28;21230;-88
2022/05/04 10:48:25;;;;;;;9.83;8.97;;;18.60;99.90;;;;;;5084241;28;21241;-87
2022/05/04 10:50:54;;;;;;;8.83;8.23;;;18.70;99.90;;;;;;5079459;28;20624;-88
2022/05/04 10:53:35;;;;;;;10.70;9.73;;;18.80;99.90;;;;;;5080224;28;20743;-88
2022/05/04 10:56:05;;;;;;;9.30;8.47;;;18.90;99.90;;;;;;5085429;28;20623;-88
2022/05/04 10:58:33;;;;;;;8.53;7.73;;;19.10;99.90;;;;;;5085514;28;20658;-87
2022/05/04 11:01:12;;;;;;;9.53;8.33;;;19.20;99.90;;;;;;5081097;28;20644;-87
2022/05/04 11:03:50;;;;;;;6.73;6.20;;;19.30;99.90;;;;;;5086409;28;20660;-88
2022/05/04 11:06:25;;;;;;;6.90;6.20;;;19.50;99.90;;;;;;5081767;28;20608;-87
2022/05/04 11:08:54;;;;;;;7.47;6.83;;;19.70;99.90;;;;;;5079450;28;20675;-88
2022/05/04 11:11:22;;;;;;;5.70;5.13;;;20.00;99.90;;;;;;5085576;28;20616;-88
2022/05/04 11:13:49;;;;;;;4.60;4.20;;;20.20;99.90;;;;;;5079830;28;20710;-88
2022/05/04 11:16:16;;;;;;;4.57;2.87;;;20.50;99.90;;;;;;5082882;28;20992;-87
2022/05/04 11:18:43;;;;;;;4.10;3.70;;;20.80;99.90;;;;;;5081770;28;20848;-88
2022/05/04 11:21:13;;;;;;;5.13;4.83;;;21.20;99.90;;;;;;5082334;28;21036;-87
2022/05/04 11:23:46;;;;;;;6.03;5.00;;;21.30;99.90;;;;;;5083815;28;21379;-87
2022/05/04 11:26:18;;;;;;;5.63;4.50;;;21.50;99.60;;;;;;5080431;28;21106;-88
2022/05/04 11:28:45;;;;;;;5.93;5.50;;;21.60;97.80;;;;;;5078859;28;20652;-88
2022/05/04 11:31:12;;;;;;;5.70;5.20;;;21.70;99.30;;;;;;5082275;28;20637;-88
2022/05/04 11:33:41;;;;;;;4.30;4.00;;;21.60;99.90;;;;;;5085145;28;20634;-88
2022/05/04 11:36:08;;;;;;;5.87;5.47;;;21.80;98.20;;;;;;5077841;28;21251;-87
2022/05/04 11:38:35;;;;;;;8.77;4.37;;;22.00;96.90;;;;;;5081046;28;20652;-88
2022/05/04 11:41:04;;;;;;;5.33;4.83;;;22.20;97.00;;;;;;5089862;28;20632;-88
2022/05/04 11:43:34;;;;;;;4.00;3.80;;;22.20;95.60;;;;;;5083873;28;20665;-88
2022/05/04 11:46:04;;;;;;;4.40;4.00;;;22.30;95.40;;;;;;5084247;28;20628;-88
2022/05/04 11:48:31;;;;;;;4.93;4.53;;;22.20;93.30;;;;;;5080372;28;20659;-89
2022/05/04 11:50:58;;;;;;;5.60;5.10;;;22.40;93.60;;;;;;5087501;28;20978;-89
2022/05/04 11:53:25;;;;;;;4.77;4.37;;;22.60;91.80;;;;;;5084378;28;20624;-89
2022/05/04 11:55:52;;;;;;;5.00;4.60;;;22.80;94.40;;;;;;5082422;28;20620;-89
2022/05/04 11:58:20;;;;;;;5.73;5.20;;;23.00;91.40;;;;;;5083606;28;20649;-89
2022/05/04 12:00:47;;;;;;;5.67;5.27;;;23.30;89.10;;;;;;5079562;28;20585;-89
2022/05/04 12:03:14;;;;;;;6.27;5.87;;;23.50;87.70;;;;;;5080741;28;20647;-89
2022/05/04 12:05:41;;;;;;;5.33;5.03;;;23.50;87.80;;;;;;5079304;28;21118;-89
2022/05/04 12:08:09;;;;;;;5.80;5.40;;;23.60;87.70;;;;;;5082089;28;21107;-89
2022/05/04 12:10:36;;;;;;;5.20;4.70;;;23.60;87.10;;;;;;5081160;28;20974;-89
2022/05/04 12:13:03;;;;;;;5.93;5.53;;;23.70;88.20;;;;;;5080037;28;20647;-89
2022/05/04 12:15:32;;;;;;;5.57;5.20;;;23.50;88.00;;;;;;5083256;28;20635;-89
2022/05/04 12:18:00;;;;;;;6.00;5.47;;;23.80;86.30;;;;;;5081425;28;21060;-89
2022/05/04 12:20:28;;;;;;;5.00;4.57;;;23.90;85.90;;;;;;5078660;28;20631;-88
2022/05/04 12:22:56;;;;;;;6.40;5.90;;;24.10;88.50;;;;;;5082935;28;20657;-88
2022/05/04 12:25:24;;;;;;;6.43;5.87;;;24.30;83.40;;;;;;5077901;28;20665;-88
2022/05/04 12:27:51;;;;;;;5.10;4.63;;;24.40;83.00;;;;;;5079933;28;21229;-90
2022/05/04 12:33:10;;;;;;;5.93;5.57;;;24.90;81.00;;;;;;5082418;28;20612;-90
2022/05/04 12:35:40;;;;;;;5.70;5.30;;;24.90;78.90;;;;;;5076471;28;20629;-90
2022/05/04 12:38:08;;;;;;;6.27;5.87;;;24.90;74.00;;;;;;5078197;28;20688;-90
2022/05/04 12:40:35;;;;;;;5.33;5.00;;;24.90;72.90;;;;;;5081758;28;20628;-87
2022/05/04 12:43:04;;;;;;;6.10;5.70;;;25.10;74.70;;;;;;5096293;28;20609;-89
2022/05/04 12:45:31;;;;;;;6.37;5.90;;;25.20;72.60;;;;;;5091428;28;21171;-89
2022/05/04 12:47:59;;;;;;;5.60;5.00;;;25.40;73.20;;;;;;5091979;28;21245;-90
2022/05/04 12:50:29;;;;;;;5.60;5.20;;;25.60;70.90;;;;;;5076542;28;21213;-88
2022/05/04 12:52:56;;;;;;;4.83;4.43;;;26.10;69.60;;;;;;5077408;28;20624;-89
2022/05/04 12:56:45;;;;;;;5.40;4.90;;;26.20;66.30;;;;;;5075812;28;20640;-89
2022/05/04 12:58:13;;;;;;;5.50;5.10;;;26.10;65.40;;;;;;5081789;28;21190;-88
2022/05/04 13:00:40;;;;;;;5.17;4.77;;;26.20;64.70;;;;;;5076210;28;21227;-89
2022/05/04 13:03:10;;;;;;;6.60;5.90;;;26.30;63.60;;;;;;5081894;28;20640;-89
2022/05/04 13:05:38;;;;;;;5.30;4.90;;;26.40;63.30;;;;;;5070664;28;20740;-89
2022/05/04 13:08:06;;;;;;;6.67;5.30;;;26.30;62.50;;;;;;5079750;28;20639;-89
2022/05/04 13:10:33;;;;;;;5.23;4.77;;;26.00;63.20;;;;;;5078049;28;20620;-89
2022/05/04 13:13:00;;;;;;;5.67;5.17;;;26.40;63.10;;;;;;5079685;28;20596;-89
2022/05/04 13:15:26;;;;;;;5.80;5.23;;;26.50;62.10;;;;;;5072416;28;20620;-89